sensor_id;sensor_type;location;lat;lon;timestamp;pressure;altitude;pressure_sealevel;temperature;humidity
30021;BME280;16861;52.294;7.760;2023-02-12T00:00:41;101908.88;;;10.27;69.59
30021;BME280;16861;52.294;7.760;2023-02-12T00:03:08;101919.41;;;10.27;69.76
30021;BME280;16861;52.294;7.760;2023-02-12T00:05:38;101917.72;;;10.25;69.71
30021;BME280;16861;52.294;7.760;2023-02-12T00:08:08;101919.44;;;10.26;69.54
30021;BME280;16861;52.294;7.760;2023-02-12T00:10:40;101921.19;;;10.25;69.91
30021;BME280;16861;52.294;7.760;2023-02-12T00:13:11;101908.94;;;10.24;69.61
30021;BME280;16861;52.294;7.760;2023-02-12T00:15:40;101905.38;;;10.25;69.79
30021;BME280;16861;52.294;7.760;2023-02-12T00:18:07;101921.19;;;10.25;69.78
30021;BME280;16861;52.294;7.760;2023-02-12T00:20:35;101920.34;;;10.25;70.01
30021;BME280;16861;52.294;7.760;2023-02-12T00:23:01;101921.19;;;10.25;69.89
30021;BME280;16861;52.294;7.760;2023-02-12T00:25:28;101923.81;;;10.25;69.84
30021;BME280;16861;52.294;7.760;2023-02-12T00:27:54;101917.69;;;10.26;69.85
30021;BME280;16861;52.294;7.760;2023-02-12T00:30:21;101922.94;;;10.26;69.96
30021;BME280;16861;52.294;7.760;2023-02-12T00:32:47;101910.63;;;10.27;69.86
30021;BME280;16861;52.294;7.760;2023-02-12T00:35:14;101916.78;;;10.27;69.99
30021;BME280;16861;52.294;7.760;2023-02-12T00:37:41;101918.50;;;10.28;69.95
30021;BME280;16861;52.294;7.760;2023-02-12T00:40:08;101914.13;;;10.27;69.88
30021;BME280;16861;52.294;7.760;2023-02-12T00:42:36;101913.22;;;10.28;69.83
30021;BME280;16861;52.294;7.760;2023-02-12T00:45:02;101915.03;;;10.28;69.77
30021;BME280;16861;52.294;7.760;2023-02-12T00:47:29;101914.13;;;10.29;69.91
30021;BME280;16861;52.294;7.760;2023-02-12T00:49:55;101919.38;;;10.29;69.82
30021;BME280;16861;52.294;7.760;2023-02-12T00:52:22;101923.72;;;10.30;69.95
30021;BME280;16861;52.294;7.760;2023-02-12T00:54:49;101930.72;;;10.31;69.85
30021;BME280;16861;52.294;7.760;2023-02-12T00:57:15;101927.25;;;10.30;69.88
30021;BME280;16861;52.294;7.760;2023-02-12T00:59:42;101924.63;;;10.30;69.78
30021;BME280;16861;52.294;7.760;2023-02-12T01:02:08;101934.25;;;10.32;69.86
30021;BME280;16861;52.294;7.760;2023-02-12T01:04:35;101926.34;;;10.32;69.88
30021;BME280;16861;52.294;7.760;2023-02-12T01:07:01;101934.25;;;10.30;69.79
30021;BME280;16861;52.294;7.760;2023-02-12T01:09:28;101928.09;;;10.31;69.88
30021;BME280;16861;52.294;7.760;2023-02-12T01:11:55;101937.78;;;10.30;69.87
30021;BME280;16861;52.294;7.760;2023-02-12T01:14:21;101934.25;;;10.30;69.84
30021;BME280;16861;52.294;7.760;2023-02-12T01:16:48;101941.28;;;10.29;69.95
30021;BME280;16861;52.294;7.760;2023-02-12T01:19:15;101934.28;;;10.28;69.90
30021;BME280;16861;52.294;7.760;2023-02-12T01:21:41;101936.06;;;10.28;70.00
30021;BME280;16861;52.294;7.760;2023-02-12T01:24:08;101934.28;;;10.28;70.08
30021;BME280;16861;52.294;7.760;2023-02-12T01:26:35;101942.19;;;10.28;69.89
30021;BME280;16861;52.294;7.760;2023-02-12T01:29:04;101941.28;;;10.29;69.98
30021;BME280;16861;52.294;7.760;2023-02-12T01:31:34;101931.66;;;10.28;70.09
30021;BME280;16861;52.294;7.760;2023-02-12T01:34:03;101936.00;;;10.29;69.92
30021;BME280;16861;52.294;7.760;2023-02-12T01:36:30;101930.75;;;10.29;69.83
30021;BME280;16861;52.294;7.760;2023-02-12T01:38:57;101929.91;;;10.29;70.00
30021;BME280;16861;52.294;7.760;2023-02-12T01:41:26;101933.44;;;10.28;70.02
30021;BME280;16861;52.294;7.760;2023-02-12T01:44:19;101938.75;;;10.25;70.12
30021;BME280;16861;52.294;7.760;2023-02-12T01:46:48;101928.13;;;10.29;69.92
30021;BME280;16861;52.294;7.760;2023-02-12T01:49:20;101928.22;;;10.26;69.92
30021;BME280;16861;52.294;7.760;2023-02-12T01:51:51;101936.94;;;10.27;69.89
30021;BME280;16861;52.294;7.760;2023-02-12T01:54:20;101925.56;;;10.26;69.91
30021;BME280;16861;52.294;7.760;2023-02-12T01:56:48;101929.06;;;10.27;69.95
30021;BME280;16861;52.294;7.760;2023-02-12T01:59:15;101922.94;;;10.26;70.06
30021;BME280;16861;52.294;7.760;2023-02-12T02:01:42;101927.31;;;10.27;69.90
30021;BME280;16861;52.294;7.760;2023-02-12T02:04:16;101929.97;;;10.24;70.02
30021;BME280;16861;52.294;7.760;2023-02-12T02:06:52;101929.13;;;10.24;70.00
30021;BME280;16861;52.294;7.760;2023-02-12T02:09:21;101929.06;;;10.27;69.90
30021;BME280;16861;52.294;7.760;2023-02-12T02:11:47;101922.97;;;10.25;70.01
30021;BME280;16861;52.294;7.760;2023-02-12T02:14:32;101918.56;;;10.25;69.74
30021;BME280;16861;52.294;7.760;2023-02-12T02:28:26;101915.31;;;10.12;69.96
30021;BME280;16861;52.294;7.760;2023-02-12T02:39:31;101905.75;;;10.08;69.98
30021;BME280;16861;52.294;7.760;2023-02-12T02:42:10;101917.19;;;10.07;70.09
30021;BME280;16861;52.294;7.760;2023-02-12T02:44:53;101907.56;;;10.06;70.14
30021;BME280;16861;52.294;7.760;2023-02-12T02:47:23;101913.66;;;10.08;70.15
30021;BME280;16861;52.294;7.760;2023-02-12T02:49:57;101910.09;;;10.09;70.29
30021;BME280;16861;52.294;7.760;2023-02-12T02:52:38;101900.50;;;10.07;70.13
30021;BME280;16861;52.294;7.760;2023-02-12T02:55:08;101903.94;;;10.10;69.99
30021;BME280;16861;52.294;7.760;2023-02-12T02:57:44;101912.72;;;10.11;70.12
30021;BME280;16861;52.294;7.760;2023-02-12T03:00:19;101903.13;;;10.08;70.25
30021;BME280;16861;52.294;7.760;2023-02-12T03:02:51;101908.34;;;10.10;70.18
30021;BME280;16861;52.294;7.760;2023-02-12T03:08:19;101906.63;;;10.09;70.17
30021;BME280;16861;52.294;7.760;2023-02-12T03:11:00;101909.19;;;10.12;70.18
30021;BME280;16861;52.294;7.760;2023-02-12T03:13:36;101900.41;;;10.13;69.98
30021;BME280;16861;52.294;7.760;2023-02-12T03:16:13;101903.91;;;10.12;70.18
30021;BME280;16861;52.294;7.760;2023-02-12T03:18:46;101908.34;;;10.10;70.16
30021;BME280;16861;52.294;7.760;2023-02-12T03:21:20;101908.38;;;10.08;70.28
30021;BME280;16861;52.294;7.760;2023-02-12T03:23:56;101902.25;;;10.08;70.30
30021;BME280;16861;52.294;7.760;2023-02-12T03:26:47;101902.31;;;10.04;70.38
30021;BME280;16861;52.294;7.760;2023-02-12T03:29:14;101905.72;;;10.10;70.11
30021;BME280;16861;52.294;7.760;2023-02-12T03:31:45;101904.84;;;10.09;70.12
30021;BME280;16861;52.294;7.760;2023-02-12T03:34:27;101904.88;;;10.08;70.26
30021;BME280;16861;52.294;7.760;2023-02-12T03:37:02;101904.03;;;10.07;70.38
30021;BME280;16861;52.294;7.760;2023-02-12T03:39:48;101907.59;;;10.04;70.26
30021;BME280;16861;52.294;7.760;2023-02-12T03:42:58;101911.09;;;10.03;70.33
30021;BME280;16861;52.294;7.760;2023-02-12T03:45:33;101908.38;;;10.08;70.20
30021;BME280;16861;52.294;7.760;2023-02-12T03:48:26;101906.72;;;10.04;70.43
30021;BME280;16861;52.294;7.760;2023-02-12T03:53:28;101912.75;;;10.08;70.47
30021;BME280;16861;52.294;7.760;2023-02-12T03:56:02;101908.44;;;10.05;70.27
30021;BME280;16861;52.294;7.760;2023-02-12T03:58:33;101915.47;;;10.04;70.39
30021;BME280;16861;52.294;7.760;2023-02-12T04:01:01;101916.34;;;10.05;70.24
30021;BME280;16861;52.294;7.760;2023-02-12T04:03:29;101919.88;;;10.04;70.20
30021;BME280;16861;52.294;7.760;2023-02-12T04:05:56;101911.97;;;10.04;70.28
30021;BME280;16861;52.294;7.760;2023-02-12T04:08:24;101919.03;;;10.02;70.40
30021;BME280;16861;52.294;7.760;2023-02-12T04:16:16;101914.63;;;10.02;70.42
30021;BME280;16861;52.294;7.760;2023-02-12T04:18:46;101917.25;;;10.02;70.27
30021;BME280;16861;52.294;7.760;2023-02-12T04:24:18;101925.22;;;9.99;70.51
30021;BME280;16861;52.294;7.760;2023-02-12T04:26:58;101928.75;;;9.98;70.43
30021;BME280;16861;52.294;7.760;2023-02-12T04:32:14;101928.81;;;9.95;70.67
30021;BME280;16861;52.294;7.760;2023-02-12T04:35:04;101932.31;;;9.94;70.66
30021;BME280;16861;52.294;7.760;2023-02-12T04:37:38;101928.78;;;9.97;70.49
30021;BME280;16861;52.294;7.760;2023-02-12T04:40:11;101934.09;;;9.95;70.58
30021;BME280;16861;52.294;7.760;2023-02-12T04:42:47;101938.47;;;9.95;70.64
30021;BME280;16861;52.294;7.760;2023-02-12T04:45:19;101938.44;;;9.96;70.54
30021;BME280;16861;52.294;7.760;2023-02-12T04:47:46;101939.25;;;9.98;70.45
30021;BME280;16861;52.294;7.760;2023-02-12T04:50:13;101943.69;;;9.98;70.44
30021;BME280;16861;52.294;7.760;2023-02-12T04:52:39;101938.41;;;9.98;70.55
30021;BME280;16861;52.294;7.760;2023-02-12T04:55:06;101946.31;;;9.98;70.65
30021;BME280;16861;52.294;7.760;2023-02-12T04:57:32;101941.91;;;9.97;70.47
30021;BME280;16861;52.294;7.760;2023-02-12T04:59:59;101942.81;;;9.97;70.86
30021;BME280;16861;52.294;7.760;2023-02-12T05:02:25;101941.97;;;9.95;70.67
30021;BME280;16861;52.294;7.760;2023-02-12T05:04:52;101942.00;;;9.94;70.50
30021;BME280;16861;52.294;7.760;2023-02-12T05:07:19;101936.78;;;9.90;70.27
30021;BME280;16861;52.294;7.760;2023-02-12T05:09:45;101946.47;;;9.88;70.47
30021;BME280;16861;52.294;7.760;2023-02-12T05:12:11;101948.31;;;9.83;70.72
30021;BME280;16861;52.294;7.760;2023-02-12T05:14:38;101950.97;;;9.82;70.69
30021;BME280;16861;52.294;7.760;2023-02-12T05:17:04;101952.78;;;9.78;70.52
30021;BME280;16861;52.294;7.760;2023-02-12T05:19:31;101952.00;;;9.74;70.83
30021;BME280;16861;52.294;7.760;2023-02-12T05:21:57;101945.91;;;9.71;70.59
30021;BME280;16861;52.294;7.760;2023-02-12T05:24:24;101952.09;;;9.68;70.87
30021;BME280;16861;52.294;7.760;2023-02-12T05:26:51;101941.59;;;9.67;70.89
30021;BME280;16861;52.294;7.760;2023-02-12T05:29:17;101951.28;;;9.64;70.97
30021;BME280;16861;52.294;7.760;2023-02-12T05:31:44;101947.78;;;9.64;70.98
30021;BME280;16861;52.294;7.760;2023-02-12T05:34:12;101946.91;;;9.65;71.05
30021;BME280;16861;52.294;7.760;2023-02-12T05:36:39;101952.16;;;9.65;71.21
30021;BME280;16861;52.294;7.760;2023-02-12T05:39:06;101950.38;;;9.65;71.08
30021;BME280;16861;52.294;7.760;2023-02-12T05:41:33;101949.47;;;9.67;71.13
30021;BME280;16861;52.294;7.760;2023-02-12T05:44:02;101954.75;;;9.67;71.27
30021;BME280;16861;52.294;7.760;2023-02-12T05:46:29;101950.34;;;9.67;71.05
30021;BME280;16861;52.294;7.760;2023-02-12T05:48:56;101953.00;;;9.67;71.28
30021;BME280;16861;52.294;7.760;2023-02-12T05:51:24;101953.88;;;9.68;71.30
30021;BME280;16861;52.294;7.760;2023-02-12T05:53:56;101953.00;;;9.67;71.29
30021;BME280;16861;52.294;7.760;2023-02-12T05:56:25;101962.59;;;9.68;71.22
30021;BME280;16861;52.294;7.760;2023-02-12T05:58:55;101957.34;;;9.68;71.21
30021;BME280;16861;52.294;7.760;2023-02-12T06:01:28;101957.31;;;9.70;71.25
30021;BME280;16861;52.294;7.760;2023-02-12T06:03:55;101957.31;;;9.71;71.21
30021;BME280;16861;52.294;7.760;2023-02-12T06:06:27;101966.09;;;9.70;71.48
30021;BME280;16861;52.294;7.760;2023-02-12T06:08:56;101964.28;;;9.72;71.20
30021;BME280;16861;52.294;7.760;2023-02-12T06:11:23;101959.03;;;9.72;71.14
30021;BME280;16861;52.294;7.760;2023-02-12T06:13:50;101963.44;;;9.72;71.15
30021;BME280;16861;52.294;7.760;2023-02-12T06:16:21;101962.56;;;9.71;71.27
30021;BME280;16861;52.294;7.760;2023-02-12T06:18:49;101961.66;;;9.72;71.05
30021;BME280;16861;52.294;7.760;2023-02-12T06:21:17;101963.44;;;9.72;71.17
30021;BME280;16861;52.294;7.760;2023-02-12T06:23:44;101962.56;;;9.71;71.01
30021;BME280;16861;52.294;7.760;2023-02-12T06:26:10;101956.44;;;9.71;71.01
30021;BME280;16861;52.294;7.760;2023-02-12T06:28:37;101962.59;;;9.70;70.97
30021;BME280;16861;52.294;7.760;2023-02-12T06:31:04;101964.38;;;9.69;70.96
30021;BME280;16861;52.294;7.760;2023-02-12T06:33:31;101963.50;;;9.69;71.17
30021;BME280;16861;52.294;7.760;2023-02-12T06:36:02;101967.94;;;9.65;71.18
30021;BME280;16861;52.294;7.760;2023-02-12T06:38:29;101967.03;;;9.66;71.12
30021;BME280;16861;52.294;7.760;2023-02-12T06:40:55;101978.47;;;9.63;71.17
30021;BME280;16861;52.294;7.760;2023-02-12T06:43:22;101982.88;;;9.63;71.22
30021;BME280;16861;52.294;7.760;2023-02-12T06:45:48;101971.50;;;9.62;71.08
30021;BME280;16861;52.294;7.760;2023-02-12T06:48:16;101981.13;;;9.62;71.21
30021;BME280;16861;52.294;7.760;2023-02-12T06:50:43;101984.66;;;9.61;71.37
30021;BME280;16861;52.294;7.760;2023-02-12T06:53:09;101986.44;;;9.59;71.26
30021;BME280;16861;52.294;7.760;2023-02-12T06:55:36;101984.72;;;9.58;71.28
30021;BME280;16861;52.294;7.760;2023-02-12T06:58:02;101982.97;;;9.57;71.40
30021;BME280;16861;52.294;7.760;2023-02-12T07:00:29;101994.38;;;9.56;71.36
30021;BME280;16861;52.294;7.760;2023-02-12T07:02:56;101997.91;;;9.55;71.51
30021;BME280;16861;52.294;7.760;2023-02-12T07:05:23;102004.88;;;9.56;71.35
30021;BME280;16861;52.294;7.760;2023-02-12T07:07:50;102001.41;;;9.55;71.40
30021;BME280;16861;52.294;7.760;2023-02-12T07:10:17;101998.78;;;9.55;71.31
30021;BME280;16861;52.294;7.760;2023-02-12T07:12:44;101997.88;;;9.56;71.38
30021;BME280;16861;52.294;7.760;2023-02-12T07:15:12;102000.50;;;9.56;71.39
30021;BME280;16861;52.294;7.760;2023-02-12T07:17:39;102003.13;;;9.58;71.51
30021;BME280;16861;52.294;7.760;2023-02-12T07:20:06;102002.25;;;9.56;71.50
30021;BME280;16861;52.294;7.760;2023-02-12T07:22:36;101997.91;;;9.55;71.54
30021;BME280;16861;52.294;7.760;2023-02-12T07:25:03;102008.41;;;9.56;71.47
30021;BME280;16861;52.294;7.760;2023-02-12T07:27:29;102004.00;;;9.57;71.48
30021;BME280;16861;52.294;7.760;2023-02-12T07:29:56;102011.91;;;9.57;71.50
30021;BME280;16861;52.294;7.760;2023-02-12T07:32:22;102019.78;;;9.58;71.86
30021;BME280;16861;52.294;7.760;2023-02-12T07:34:48;102019.72;;;9.60;71.69
30021;BME280;16861;52.294;7.760;2023-02-12T07:37:15;102013.59;;;9.61;71.81
30021;BME280;16861;52.294;7.760;2023-02-12T07:39:48;102021.47;;;9.62;71.51
30021;BME280;16861;52.294;7.760;2023-02-12T07:42:15;102024.91;;;9.64;71.63
30021;BME280;16861;52.294;7.760;2023-02-12T07:44:41;102028.44;;;9.65;71.72
30021;BME280;16861;52.294;7.760;2023-02-12T07:47:07;102029.25;;;9.67;71.71
30021;BME280;16861;52.294;7.760;2023-02-12T07:49:34;102032.75;;;9.68;71.46
30021;BME280;16861;52.294;7.760;2023-02-12T07:52:00;102035.38;;;9.69;71.67
30021;BME280;16861;52.294;7.760;2023-02-12T07:54:27;102041.47;;;9.70;71.44
30021;BME280;16861;52.294;7.760;2023-02-12T07:56:53;102041.47;;;9.70;71.67
30021;BME280;16861;52.294;7.760;2023-02-12T07:59:20;102046.72;;;9.71;71.82
30021;BME280;16861;52.294;7.760;2023-02-12T08:01:51;102048.53;;;9.69;71.61
30021;BME280;16861;52.294;7.760;2023-02-12T08:04:20;102047.59;;;9.72;71.55
30021;BME280;16861;52.294;7.760;2023-02-12T08:06:49;102047.59;;;9.73;71.71
30021;BME280;16861;52.294;7.760;2023-02-12T08:09:22;102058.09;;;9.73;71.79
30021;BME280;16861;52.294;7.760;2023-02-12T08:11:49;102052.75;;;9.78;71.83
30021;BME280;16861;52.294;7.760;2023-02-12T08:14:18;102056.22;;;9.80;71.71
30021;BME280;16861;52.294;7.760;2023-02-12T08:16:46;102056.22;;;9.80;71.76
30021;BME280;16861;52.294;7.760;2023-02-12T08:19:14;102057.03;;;9.84;71.68
30021;BME280;16861;52.294;7.760;2023-02-12T08:21:51;102068.44;;;9.84;71.63
30021;BME280;16861;52.294;7.760;2023-02-12T08:24:18;102064.00;;;9.86;71.84
30021;BME280;16861;52.294;7.760;2023-02-12T08:26:44;102071.88;;;9.88;71.54
30021;BME280;16861;52.294;7.760;2023-02-12T08:29:13;102074.50;;;9.88;71.80
30021;BME280;16861;52.294;7.760;2023-02-12T08:31:43;102077.97;;;9.90;71.71
30021;BME280;16861;52.294;7.760;2023-02-12T08:34:19;102074.50;;;9.89;72.22
30021;BME280;16861;52.294;7.760;2023-02-12T08:36:50;102079.66;;;9.94;71.59
30021;BME280;16861;52.294;7.760;2023-02-12T08:39:20;102084.00;;;9.97;71.83
30021;BME280;16861;52.294;7.760;2023-02-12T08:41:47;102079.63;;;9.97;71.83
30021;BME280;16861;52.294;7.760;2023-02-12T08:44:15;102092.72;;;10.00;71.54
30021;BME280;16861;52.294;7.760;2023-02-12T08:46:44;102089.22;;;10.00;71.95
30021;BME280;16861;52.294;7.760;2023-02-12T08:49:14;102091.81;;;10.03;72.00
30021;BME280;16861;52.294;7.760;2023-02-12T08:51:47;102086.53;;;10.03;72.04
30021;BME280;16861;52.294;7.760;2023-02-12T08:54:17;102088.25;;;10.06;71.96
30021;BME280;16861;52.294;7.760;2023-02-12T08:56:45;102089.94;;;10.10;71.93
30021;BME280;16861;52.294;7.760;2023-02-12T08:59:12;102096.94;;;10.11;72.00
30021;BME280;16861;52.294;7.760;2023-02-12T09:01:40;102086.38;;;10.12;71.91
30021;BME280;16861;52.294;7.760;2023-02-12T09:04:14;102089.91;;;10.11;72.26
30021;BME280;16861;52.294;7.760;2023-02-12T09:06:44;102100.34;;;10.16;71.87
30021;BME280;16861;52.294;7.760;2023-02-12T09:09:10;102091.56;;;10.17;72.02
30021;BME280;16861;52.294;7.760;2023-02-12T09:11:37;102097.66;;;10.19;71.96
30021;BME280;16861;52.294;7.760;2023-02-12T09:14:06;102102.03;;;10.20;72.13
30021;BME280;16861;52.294;7.760;2023-02-12T09:16:34;102103.75;;;10.21;72.05
30021;BME280;16861;52.294;7.760;2023-02-12T09:19:01;102095.84;;;10.23;72.05
30021;BME280;16861;52.294;7.760;2023-02-12T09:21:27;102101.06;;;10.26;72.25
30021;BME280;16861;52.294;7.760;2023-02-12T09:23:54;102099.28;;;10.28;72.36
30021;BME280;16861;52.294;7.760;2023-02-12T09:26:22;102105.38;;;10.30;72.29
30021;BME280;16861;52.294;7.760;2023-02-12T09:28:51;102099.19;;;10.33;72.41
30021;BME280;16861;52.294;7.760;2023-02-12T09:31:23;102102.69;;;10.33;72.26
30021;BME280;16861;52.294;7.760;2023-02-12T09:33:56;102102.63;;;10.36;72.10
30021;BME280;16861;52.294;7.760;2023-02-12T09:36:23;102106.13;;;10.37;72.00
30021;BME280;16861;52.294;7.760;2023-02-12T09:38:50;102111.41;;;10.37;72.04
30021;BME280;16861;52.294;7.760;2023-02-12T09:44:44;102111.41;;;10.37;72.55
30021;BME280;16861;52.294;7.760;2023-02-12T09:47:19;102116.63;;;10.40;72.33
30021;BME280;16861;52.294;7.760;2023-02-12T09:52:53;102127.06;;;10.46;72.55
30021;BME280;16861;52.294;7.760;2023-02-12T09:55:26;102128.75;;;10.49;72.60
30021;BME280;16861;52.294;7.760;2023-02-12T09:57:54;102135.69;;;10.54;72.53
30021;BME280;16861;52.294;7.760;2023-02-12T10:00:24;102133.00;;;10.58;72.55
30021;BME280;16861;52.294;7.760;2023-02-12T10:02:53;102131.16;;;10.63;72.40
30021;BME280;16861;52.294;7.760;2023-02-12T10:05:48;102135.50;;;10.64;72.71
30021;BME280;16861;52.294;7.760;2023-02-12T10:11:14;102136.19;;;10.75;72.21
30021;BME280;16861;52.294;7.760;2023-02-12T10:16:54;102130.88;;;10.78;72.61
30021;BME280;16861;52.294;7.760;2023-02-12T10:22:03;102132.47;;;10.86;72.46
30021;BME280;16861;52.294;7.760;2023-02-12T10:24:37;102134.06;;;10.94;72.82
30021;BME280;16861;52.294;7.760;2023-02-12T10:27:22;102129.56;;;10.98;73.26
30021;BME280;16861;52.294;7.760;2023-02-12T10:29:51;102131.91;;;11.14;73.58
30021;BME280;16861;52.294;7.760;2023-02-12T10:32:25;102135.25;;;11.22;73.28
30021;BME280;16861;52.294;7.760;2023-02-12T10:34:55;102132.38;;;11.33;72.77
30021;BME280;16861;52.294;7.760;2023-02-12T10:37:38;102140.16;;;11.39;72.41
30021;BME280;16861;52.294;7.760;2023-02-12T10:40:24;102131.09;;;11.51;72.22
30021;BME280;16861;52.294;7.760;2023-02-12T10:42:53;102131.75;;;11.61;72.52
30021;BME280;16861;52.294;7.760;2023-02-12T10:45:24;102136.03;;;11.67;71.93
30021;BME280;16861;52.294;7.760;2023-02-12T10:47:59;102123.59;;;11.72;71.50
30021;BME280;16861;52.294;7.760;2023-02-12T10:53:00;102121.66;;;11.79;71.50
30021;BME280;16861;52.294;7.760;2023-02-12T10:55:30;102119.78;;;11.84;72.16
30021;BME280;16861;52.294;7.760;2023-02-12T10:57:59;102125.78;;;11.91;72.75
30021;BME280;16861;52.294;7.760;2023-02-12T11:00:35;102128.25;;;11.98;72.26
30021;BME280;16861;52.294;7.760;2023-02-12T11:05:33;102127.63;;;12.23;72.04
30021;BME280;16861;52.294;7.760;2023-02-12T11:08:01;102123.94;;;12.31;71.72
30021;BME280;16861;52.294;7.760;2023-02-12T11:10:36;102125.53;;;12.38;70.62
30021;BME280;16861;52.294;7.760;2023-02-12T11:13:04;102127.06;;;12.45;70.60
30021;BME280;16861;52.294;7.760;2023-02-12T11:15:36;102126.22;;;12.45;69.65
30021;BME280;16861;52.294;7.760;2023-02-12T11:18:04;102126.97;;;12.50;70.15
30021;BME280;16861;52.294;7.760;2023-02-12T11:20:40;102126.88;;;12.53;69.47
30021;BME280;16861;52.294;7.760;2023-02-12T11:23:36;102131.22;;;12.56;70.03
30021;BME280;16861;52.294;7.760;2023-02-12T11:28:31;102116.84;;;12.66;70.66
30021;BME280;16861;52.294;7.760;2023-02-12T11:33:34;102120.75;;;12.84;70.66
30021;BME280;16861;52.294;7.760;2023-02-12T11:36:12;102115.19;;;12.94;70.58
30021;BME280;16861;52.294;7.760;2023-02-12T11:38:49;102113.13;;;13.05;69.73
30021;BME280;16861;52.294;7.760;2023-02-12T11:41:43;102114.47;;;13.19;69.29
30021;BME280;16861;52.294;7.760;2023-02-12T11:46:51;102110.00;;;13.51;68.96
30021;BME280;16861;52.294;7.760;2023-02-12T11:49:23;102101.63;;;13.65;69.05
30021;BME280;16861;52.294;7.760;2023-02-12T11:51:50;102096.78;;;13.78;69.15
30021;BME280;16861;52.294;7.760;2023-02-12T11:54:21;102095.66;;;13.85;68.38
30021;BME280;16861;52.294;7.760;2023-02-12T11:56:48;102092.81;;;13.91;68.15
30021;BME280;16861;52.294;7.760;2023-02-12T11:59:26;102087.38;;;13.96;66.73
30021;BME280;16861;52.294;7.760;2023-02-12T12:01:55;102088.91;;;14.03;67.33
30021;BME280;16861;52.294;7.760;2023-02-12T12:04:26;102078.88;;;14.12;67.59
30021;BME280;16861;52.294;7.760;2023-02-12T12:06:58;102077.34;;;14.31;69.84
30021;BME280;16861;52.294;7.760;2023-02-12T12:09:32;102074.53;;;14.60;70.64
30021;BME280;16861;52.294;7.760;2023-02-12T12:12:22;102073.47;;;14.90;67.24
30021;BME280;16861;52.294;7.760;2023-02-12T12:15:01;102065.16;;;15.23;66.45
30021;BME280;16861;52.294;7.760;2023-02-12T12:17:50;102060.81;;;15.65;68.55
30021;BME280;16861;52.294;7.760;2023-02-12T12:20:47;102066.16;;;16.08;66.75
30021;BME280;16861;52.294;7.760;2023-02-12T12:23:18;102058.31;;;16.45;65.53
30021;BME280;16861;52.294;7.760;2023-02-12T12:25:55;102057.94;;;16.74;63.04
30021;BME280;16861;52.294;7.760;2023-02-12T12:31:03;102059.69;;;17.13;61.75
30021;BME280;16861;52.294;7.760;2023-02-12T12:54:09;102031.50;;;17.81;57.75
30021;BME280;16861;52.294;7.760;2023-02-12T12:59:48;102013.09;;;17.41;56.71
30021;BME280;16861;52.294;7.760;2023-02-12T13:11:09;102007.47;;;16.72;55.37
30021;BME280;16861;52.294;7.760;2023-02-12T13:13:44;102008.31;;;16.53;55.70
30021;BME280;16861;52.294;7.760;2023-02-12T13:16:22;102008.59;;;16.28;55.13
30021;BME280;16861;52.294;7.760;2023-02-12T13:18:59;102006.88;;;16.06;55.08
30021;BME280;16861;52.294;7.760;2023-02-12T13:25:15;102009.66;;;15.61;54.89
30021;BME280;16861;52.294;7.760;2023-02-12T13:27:31;102003.69;;;15.34;55.38
30021;BME280;16861;52.294;7.760;2023-02-12T13:30:18;102003.69;;;15.11;55.85
30021;BME280;16861;52.294;7.760;2023-02-12T13:32:59;102012.38;;;14.93;56.13
30021;BME280;16861;52.294;7.760;2023-02-12T13:35:29;102008.44;;;14.81;57.41
30021;BME280;16861;52.294;7.760;2023-02-12T13:37:58;102014.22;;;14.67;57.37
30021;BME280;16861;52.294;7.760;2023-02-12T13:40:28;102013.75;;;14.55;57.50
30021;BME280;16861;52.294;7.760;2023-02-12T13:45:40;102002.91;;;14.38;57.78
30021;BME280;16861;52.294;7.760;2023-02-12T13:48:48;102010.22;;;14.31;58.30
30021;BME280;16861;52.294;7.760;2023-02-12T13:51:27;102010.16;;;14.32;59.40
30021;BME280;16861;52.294;7.760;2023-02-12T13:57:01;102008.50;;;14.30;59.17
30021;BME280;16861;52.294;7.760;2023-02-12T14:02:01;102012.13;;;14.27;59.54
30021;BME280;16861;52.294;7.760;2023-02-12T14:07:05;102010.69;;;14.18;58.50
30021;BME280;16861;52.294;7.760;2023-02-12T14:14:53;102013.66;;;14.09;58.61
30021;BME280;16861;52.294;7.760;2023-02-12T14:23:20;102011.56;;;13.93;58.61
30021;BME280;16861;52.294;7.760;2023-02-12T14:26:10;102010.91;;;13.87;59.28
30021;BME280;16861;52.294;7.760;2023-02-12T14:28:58;102011.00;;;13.84;59.96
30021;BME280;16861;52.294;7.760;2023-02-12T14:36:42;102002.19;;;13.83;60.76
30021;BME280;16861;52.294;7.760;2023-02-12T14:41:45;101994.41;;;13.78;61.19
30021;BME280;16861;52.294;7.760;2023-02-12T14:46:59;101990.34;;;13.68;60.58
30021;BME280;16861;52.294;7.760;2023-02-12T14:55:03;101986.09;;;13.64;60.21
30021;BME280;16861;52.294;7.760;2023-02-12T14:57:36;101992.19;;;13.66;60.21
30021;BME280;16861;52.294;7.760;2023-02-12T15:02:52;101992.34;;;13.61;59.90
30021;BME280;16861;52.294;7.760;2023-02-12T15:05:22;101980.91;;;13.61;60.20
30021;BME280;16861;52.294;7.760;2023-02-12T15:17:15;101988.38;;;13.46;59.58
30021;BME280;16861;52.294;7.760;2023-02-12T15:19:58;101992.97;;;13.41;59.50
30021;BME280;16861;52.294;7.760;2023-02-12T15:22:32;101985.22;;;13.36;59.60
30021;BME280;16861;52.294;7.760;2023-02-12T15:25:33;101989.84;;;13.29;60.05
30021;BME280;16861;52.294;7.760;2023-02-12T15:28:05;101993.31;;;13.30;60.08
30021;BME280;16861;52.294;7.760;2023-02-12T15:30:41;101992.63;;;13.25;60.08
30021;BME280;16861;52.294;7.760;2023-02-12T15:33:10;101987.41;;;13.22;60.49
30021;BME280;16861;52.294;7.760;2023-02-12T15:35:43;101982.28;;;13.17;60.41
30021;BME280;16861;52.294;7.760;2023-02-12T15:38:20;101984.28;;;13.10;60.05
30021;BME280;16861;52.294;7.760;2023-02-12T15:40:56;101984.34;;;13.07;60.39
30021;BME280;16861;52.294;7.760;2023-02-12T15:43:27;101989.66;;;13.07;60.48
30021;BME280;16861;52.294;7.760;2023-02-12T15:45:56;101988.84;;;13.05;60.81